Time;durP1;ratioP1;P1;durP2;ratioP2;P2;SDS_P1;SDS_P2;PMS_P1;PMS_P2;Temp;Humidity;BMP_temperature;BMP_pressure;BME280_temperature;BME280_humidity;BME280_pressure;Samples;Min_cycle;Max_cycle;Signal;HPM_P1;HPM_P2
2022/10/24 00:01:41;;;;;;;5.65;2.30;;;13.80;91.30;;;;;;5081131;28;20055;-59
2022/10/24 00:04:11;;;;;;;3.97;2.10;;;13.80;91.40;;;;;;5080819;28;20058;-60
2022/10/24 00:06:40;;;;;;;5.22;2.30;;;13.90;91.40;;;;;;5083689;28;20057;-60
2022/10/24 00:09:07;;;;;;;3.97;2.17;;;13.90;91.30;;;;;;5089429;28;20059;-59
2022/10/24 00:11:35;;;;;;;4.15;2.10;;;13.80;91.30;;;;;;5084163;28;20052;-59
2022/10/24 00:14:02;;;;;;;5.10;1.90;;;13.80;91.40;;;;;;5084533;28;20409;-58
2022/10/24 00:16:29;;;;;;;4.05;1.85;;;13.80;91.50;;;;;;5083902;28;20043;-59
2022/10/24 00:18:58;;;;;;;3.28;1.85;;;13.70;91.50;;;;;;5093473;28;20105;-59
2022/10/24 00:21:24;;;;;;;3.35;2.00;;;13.80;91.50;;;;;;5089899;28;20040;-59
2022/10/24 00:23:51;;;;;;;4.38;1.73;;;13.70;91.50;;;;;;5087180;28;20116;-61
2022/10/24 00:26:18;;;;;;;3.47;1.65;;;13.70;91.50;;;;;;5087013;28;20064;-60
2022/10/24 00:28:48;;;;;;;2.47;1.27;;;13.70;91.40;;;;;;5079387;28;20057;-59
2022/10/24 00:31:17;;;;;;;2.63;1.45;;;13.70;91.40;;;;;;5077439;28;20495;-60
2022/10/24 00:33:50;;;;;;;2.83;1.55;;;13.70;91.40;;;;;;5070451;28;20052;-59
2022/10/24 00:36:20;;;;;;;2.03;1.35;;;13.70;91.30;;;;;;5072948;28;20176;-58
2022/10/24 00:38:47;;;;;;;2.85;1.35;;;13.70;91.30;;;;;;5080647;28;20047;-60
2022/10/24 00:41:16;;;;;;;3.22;1.75;;;13.60;91.50;;;;;;5084997;28;20044;-60
2022/10/24 00:43:43;;;;;;;5.00;2.28;;;13.70;91.20;;;;;;5083759;28;20040;-61
2022/10/24 00:46:11;;;;;;;4.53;2.10;;;13.80;91.10;;;;;;5085448;28;20040;-60
2022/10/24 00:48:41;;;;;;;4.05;1.58;;;13.80;91.10;;;;;;5082087;28;20084;-59
2022/10/24 00:51:10;;;;;;;;;;;13.70;91.20;;;;;;5086761;28;20036;-59
2022/10/24 00:53:44;;;;;;;5.73;1.83;;;13.70;91.30;;;;;;5082039;28;20027;-59
2022/10/24 00:56:14;;;;;;;3.60;1.67;;;13.70;91.40;;;;;;5082681;28;20052;-59
2022/10/24 00:58:43;;;;;;;2.47;1.42;;;13.70;91.40;;;;;;5071570;28;20800;-60
2022/10/24 01:01:11;;;;;;;3.20;1.60;;;13.60;91.40;;;;;;5081570;28;20052;-59
2022/10/24 01:03:38;;;;;;;4.32;1.65;;;13.60;91.40;;;;;;5084311;28;20417;-58
2022/10/24 01:06:26;;;;;;;2.55;1.40;;;13.60;91.30;;;;;;5087322;28;20143;-59
2022/10/24 01:09:07;;;;;;;2.97;1.38;;;13.60;91.30;;;;;;5087287;28;20043;-59
2022/10/24 01:11:47;;;;;;;3.53;1.40;;;13.60;91.20;;;;;;5085176;28;20052;-60
2022/10/24 01:14:27;;;;;;;3.45;1.35;;;13.60;91.20;;;;;;5088433;28;20043;-59
2022/10/24 01:17:00;;;;;;;4.95;1.40;;;13.60;91.20;;;;;;5082028;28;20040;-59
2022/10/24 01:20:08;;;;;;;4.55;1.70;;;13.60;91.20;;;;;;5082906;28;20045;-59
2022/10/24 01:22:47;;;;;;;4.50;1.30;;;13.60;91.20;;;;;;5058588;28;20442;-59
2022/10/24 01:25:20;;;;;;;2.45;1.30;;;13.60;91.20;;;;;;5088199;28;20048;-60
2022/10/24 01:28:03;;;;;;;2.63;1.35;;;13.60;91.10;;;;;;5085089;28;20882;-59
2022/10/24 01:30:39;;;;;;;4.55;1.65;;;13.60;91.00;;;;;;5087532;28;20043;-59
2022/10/24 01:33:15;;;;;;;2.15;1.27;;;13.50;91.10;;;;;;5089611;28;20044;-60
2022/10/24 01:35:47;;;;;;;2.63;1.20;;;13.50;91.20;;;;;;5084908;28;20517;-59
2022/10/24 01:38:20;;;;;;;2.55;1.38;;;13.40;91.20;;;;;;5086969;28;20036;-58
2022/10/24 01:40:52;;;;;;;4.57;1.58;;;13.40;91.10;;;;;;5090608;28;20050;-59
2022/10/24 01:43:24;;;;;;;5.03;1.17;;;13.40;91.00;;;;;;5085863;28;20367;-59
2022/10/24 01:45:58;;;;;;;2.92;1.40;;;13.40;90.90;;;;;;5086868;28;20052;-59
2022/10/24 01:48:27;;;;;;;2.53;1.15;;;13.40;91.10;;;;;;5083375;28;20052;-60
2022/10/24 01:50:56;;;;;;;2.78;1.33;;;13.40;91.00;;;;;;5085464;28;20482;-59
2022/10/24 01:53:27;;;;;;;2.13;0.90;;;13.30;91.00;;;;;;5083695;28;20060;-59
2022/10/24 01:55:55;;;;;;;3.28;1.10;;;13.30;91.10;;;;;;5085424;28;20052;-59
2022/10/24 01:58:22;;;;;;;2.67;1.10;;;13.30;91.00;;;;;;5089595;28;20036;-60
2022/10/24 02:00:51;;;;;;;2.08;0.90;;;13.30;90.90;;;;;;5085164;28;20405;-60
2022/10/24 02:03:26;;;;;;;3.03;1.10;;;13.30;90.90;;;;;;5086679;28;20098;-59
2022/10/24 02:05:58;;;;;;;1.13;0.73;;;13.30;90.70;;;;;;5085659;28;20040;-59
2022/10/24 02:08:28;;;;;;;1.63;0.95;;;13.20;90.70;;;;;;5082887;28;20055;-59
2022/10/24 02:10:58;;;;;;;1.35;0.90;;;13.20;90.60;;;;;;5091889;28;20048;-59
2022/10/24 02:13:29;;;;;;;3.10;1.10;;;13.20;90.60;;;;;;5083988;28;20485;-59
2022/10/24 02:15:59;;;;;;;1.65;1.08;;;13.20;90.60;;;;;;5083300;28;20121;-60
2022/10/24 02:18:28;;;;;;;2.25;0.90;;;13.20;90.50;;;;;;5079093;28;20036;-59
2022/10/24 02:21:02;;;;;;;1.93;0.80;;;13.10;90.40;;;;;;5078542;28;20055;-59
2022/10/24 02:23:35;;;;;;;1.17;0.80;;;13.20;90.30;;;;;;5082378;28;20040;-60
2022/10/24 02:26:04;;;;;;;1.63;0.70;;;13.10;90.20;;;;;;5087980;28;20051;-59
2022/10/24 02:28:38;;;;;;;1.48;0.70;;;13.10;90.20;;;;;;5089309;28;20036;-59
2022/10/24 02:31:09;;;;;;;1.20;0.80;;;13.00;90.10;;;;;;5081856;28;20040;-59
2022/10/24 02:33:39;;;;;;;2.38;0.90;;;13.00;90.10;;;;;;5092237;28;20040;-60
2022/10/24 02:36:08;;;;;;;2.78;0.80;;;13.00;90.20;;;;;;5084901;28;20063;-60
2022/10/24 02:38:38;;;;;;;3.65;0.75;;;13.00;90.20;;;;;;5086328;28;20055;-59
2022/10/24 02:41:10;;;;;;;2.42;0.77;;;13.00;90.20;;;;;;5086375;28;20036;-60
2022/10/24 02:43:40;;;;;;;1.00;0.70;;;13.00;90.10;;;;;;5084734;28;20052;-60
2022/10/24 02:46:09;;;;;;;1.73;0.90;;;12.90;90.10;;;;;;5088748;28;20052;-60
2022/10/24 02:48:39;;;;;;;2.40;0.95;;;12.90;90.10;;;;;;5088200;28;20494;-58
2022/10/24 02:51:07;;;;;;;3.10;1.20;;;12.90;90.10;;;;;;5084651;28;20055;-59
2022/10/24 02:53:38;;;;;;;3.78;1.08;;;12.90;90.10;;;;;;5078430;28;20048;-60
2022/10/24 02:56:06;;;;;;;4.72;1.20;;;12.90;90.10;;;;;;5085743;28;20039;-63
2022/10/24 02:58:33;;;;;;;2.15;1.10;;;12.90;90.10;;;;;;5088271;28;20040;-60
2022/10/24 03:01:00;;;;;;;4.32;1.20;;;12.80;90.10;;;;;;5087142;28;20097;-60
2022/10/24 03:03:27;;;;;;;2.15;1.20;;;12.80;90.10;;;;;;5084302;28;20053;-59
2022/10/24 03:05:56;;;;;;;3.40;1.10;;;12.80;90.10;;;;;;5087834;28;20052;-59
2022/10/24 03:08:22;;;;;;;1.95;1.00;;;12.80;90.10;;;;;;5089717;28;20820;-59
2022/10/24 03:10:50;;;;;;;3.65;1.00;;;12.80;90.00;;;;;;5088341;28;20703;-59
2022/10/24 03:13:17;;;;;;;1.98;0.90;;;12.70;90.00;;;;;;5080483;28;20245;-59
2022/10/24 03:15:44;;;;;;;3.15;1.10;;;12.70;90.00;;;;;;5082957;28;20052;-60
2022/10/24 03:18:11;;;;;;;2.28;0.95;;;12.70;90.00;;;;;;5083848;28;20445;-59
2022/10/24 03:20:37;;;;;;;2.58;1.30;;;12.70;90.00;;;;;;5084723;28;20640;-61
2022/10/24 03:23:06;;;;;;;2.83;1.00;;;12.80;90.00;;;;;;5085002;28;20040;-59
2022/10/24 03:25:33;;;;;;;2.67;1.45;;;12.70;89.90;;;;;;5082490;28;20067;-61
2022/10/24 03:28:00;;;;;;;2.03;1.00;;;12.70;89.90;;;;;;5083859;28;20054;-59
2022/10/24 03:30:26;;;;;;;2.00;1.00;;;12.70;89.80;;;;;;5084236;28;20044;-59
2022/10/24 03:32:54;;;;;;;3.03;1.10;;;12.70;89.90;;;;;;5090032;28;20059;-60
2022/10/24 03:35:21;;;;;;;1.73;1.10;;;12.70;89.90;;;;;;5084627;28;20047;-59
2022/10/24 03:37:49;;;;;;;4.82;1.30;;;12.70;89.90;;;;;;5087258;28;20122;-59
2022/10/24 03:40:17;;;;;;;2.22;1.05;;;12.70;89.90;;;;;;5086621;28;20040;-58
2022/10/24 03:42:44;;;;;;;3.47;1.25;;;12.70;89.90;;;;;;5086629;28;20040;-58
2022/10/24 03:45:11;;;;;;;2.17;1.00;;;12.60;90.00;;;;;;5081933;28;20101;-61
2022/10/24 03:47:38;;;;;;;2.85;1.50;;;12.60;90.00;;;;;;5085271;28;20043;-59
2022/10/24 03:50:06;;;;;;;1.85;1.00;;;12.60;90.10;;;;;;5087145;28;20502;-60
2022/10/24 03:52:33;;;;;;;2.28;1.10;;;12.60;90.10;;;;;;5080363;28;20062;-59
2022/10/24 03:55:00;;;;;;;3.50;1.15;;;12.60;90.10;;;;;;5075569;28;20040;-59
2022/10/24 03:57:30;;;;;;;2.30;1.15;;;12.60;90.10;;;;;;5087296;28;20052;-59
2022/10/24 03:59:57;;;;;;;2.22;1.10;;;12.60;90.10;;;;;;5085700;28;20481;-59
2022/10/24 04:02:24;;;;;;;1.75;1.00;;;12.60;90.00;;;;;;5080853;28;20516;-59
2022/10/24 04:04:51;;;;;;;2.83;1.30;;;12.60;90.00;;;;;;5083915;28;20470;-59
2022/10/24 04:07:17;;;;;;;2.60;1.10;;;12.60;90.00;;;;;;5083709;28;20061;-60
2022/10/24 04:09:44;;;;;;;3.10;1.10;;;12.60;89.90;;;;;;5083841;28;20043;-60
2022/10/24 04:12:11;;;;;;;2.78;1.20;;;12.60;90.00;;;;;;5082451;28;20059;-58
2022/10/24 04:14:39;;;;;;;4.22;1.10;;;12.60;90.10;;;;;;5083168;28;20052;-59
2022/10/24 04:17:06;;;;;;;3.28;1.13;;;12.60;90.10;;;;;;5085860;28;20501;-59
2022/10/24 04:19:33;;;;;;;2.92;1.05;;;12.50;90.20;;;;;;5081175;28;20071;-59
2022/10/24 04:22:00;;;;;;;2.53;1.27;;;12.50;90.20;;;;;;5083605;28;20040;-60
2022/10/24 04:24:27;;;;;;;3.17;1.10;;;12.50;90.20;;;;;;5087334;28;20055;-59
2022/10/24 04:26:54;;;;;;;2.65;1.20;;;12.50;90.20;;;;;;5082650;28;20044;-59
2022/10/24 04:29:21;;;;;;;2.13;1.00;;;12.60;90.20;;;;;;5079288;28;20224;-60
2022/10/24 04:31:49;;;;;;;3.53;1.05;;;12.60;90.10;;;;;;5082175;28;20094;-60
2022/10/24 04:34:17;;;;;;;2.13;1.00;;;12.60;90.20;;;;;;5076928;28;20379;-59
2022/10/24 04:36:44;;;;;;;2.85;1.27;;;12.50;90.20;;;;;;5077689;28;20367;-60
2022/10/24 04:39:11;;;;;;;2.05;1.15;;;12.50;90.30;;;;;;5086411;28;20044;-60
2022/10/24 04:41:38;;;;;;;3.58;1.25;;;12.50;90.30;;;;;;5082177;28;20040;-60
2022/10/24 04:44:05;;;;;;;2.88;1.10;;;12.50;90.20;;;;;;5091425;28;20063;-60
2022/10/24 04:46:32;;;;;;;2.10;1.10;;;12.50;90.20;;;;;;5088752;28;20134;-59
2022/10/24 04:49:00;;;;;;;3.28;1.35;;;12.60;90.20;;;;;;5090167;28;20501;-61
2022/10/24 04:51:28;;;;;;;2.38;1.20;;;12.50;90.20;;;;;;5084182;28;20058;-59
2022/10/24 04:53:54;;;;;;;2.15;1.20;;;12.50;90.30;;;;;;5088553;28;20075;-59
2022/10/24 04:56:24;;;;;;;3.13;1.35;;;12.60;90.10;;;;;;5085836;28;20055;-59
2022/10/24 04:58:51;;;;;;;2.15;1.15;;;12.60;90.10;;;;;;5090548;28;20434;-60
2022/10/24 05:01:18;;;;;;;5.15;1.50;;;12.50;90.20;;;;;;5089462;28;20119;-58
2022/10/24 05:03:46;;;;;;;3.13;1.30;;;12.60;90.00;;;;;;5083853;28;20048;-60
2022/10/24 05:06:14;;;;;;;4.65;1.35;;;12.60;90.00;;;;;;5086619;28;20059;-60
2022/10/24 05:08:41;;;;;;;4.50;1.50;;;12.60;90.10;;;;;;5081162;28;20051;-59
2022/10/24 05:11:10;;;;;;;3.55;1.27;;;12.60;90.10;;;;;;5084692;28;20053;-60
2022/10/24 05:13:37;;;;;;;4.22;1.52;;;12.50;90.10;;;;;;5086888;28;20040;-58
2022/10/24 05:16:04;;;;;;;3.63;1.42;;;12.50;90.20;;;;;;5089857;28;20397;-60
2022/10/24 05:18:31;;;;;;;3.67;1.33;;;12.50;90.20;;;;;;5080650;28;20122;-60
2022/10/24 05:20:59;;;;;;;6.60;1.30;;;12.50;90.10;;;;;;5087662;28;20036;-61
2022/10/24 05:23:28;;;;;;;4.72;1.80;;;12.50;90.10;;;;;;5086877;28;20051;-59
2022/10/24 05:25:55;;;;;;;3.25;1.60;;;12.50;90.10;;;;;;5085483;28;20048;-59
2022/10/24 05:28:22;;;;;;;3.55;1.45;;;12.40;90.10;;;;;;5084324;28;20044;-59
2022/10/24 05:30:49;;;;;;;2.97;1.48;;;12.40;90.20;;;;;;5088471;28;20044;-59
2022/10/24 05:33:15;;;;;;;3.08;1.48;;;12.40;90.10;;;;;;5088203;28;20051;-59
2022/10/24 05:35:44;;;;;;;5.68;1.85;;;12.40;90.10;;;;;;5088205;28;20070;-59
2022/10/24 05:38:11;;;;;;;4.38;1.42;;;12.40;90.10;;;;;;5085043;28;20042;-59
2022/10/24 05:40:39;;;;;;;4.70;1.75;;;12.40;90.00;;;;;;5085395;28;20536;-60
2022/10/24 05:43:06;;;;;;;5.07;1.42;;;12.30;89.90;;;;;;5087503;28;20040;-60
2022/10/24 05:45:33;;;;;;;8.85;1.92;;;12.30;90.00;;;;;;5091590;28;20054;-60
2022/10/24 05:48:00;;;;;;;5.35;2.30;;;12.30;90.00;;;;;;5076895;28;20151;-61
2022/10/24 05:50:29;;;;;;;5.35;1.75;;;12.30;89.90;;;;;;5087264;28;20061;-59
2022/10/24 05:52:56;;;;;;;7.03;1.40;;;12.30;89.90;;;;;;5089252;28;20044;-59
2022/10/24 05:55:23;;;;;;;4.70;2.00;;;12.30;89.90;;;;;;5086072;28;20387;-59
2022/10/24 05:57:52;;;;;;;6.63;2.28;;;12.30;89.90;;;;;;5090136;28;20059;-60
2022/10/24 06:00:19;;;;;;;5.85;1.65;;;12.30;89.80;;;;;;5088263;28;20481;-59
2022/10/24 06:02:46;;;;;;;4.50;1.45;;;12.30;89.80;;;;;;5087214;28;20048;-59
2022/10/24 06:05:13;;;;;;;7.32;2.15;;;12.20;89.90;;;;;;5085402;28;20036;-60
2022/10/24 06:07:41;;;;;;;8.25;1.90;;;12.30;89.90;;;;;;5086390;28;20048;-60
2022/10/24 06:10:09;;;;;;;6.78;1.83;;;12.20;90.00;;;;;;5087589;28;20070;-59
2022/10/24 06:12:36;;;;;;;3.85;1.70;;;12.20;90.00;;;;;;5082520;28;20078;-59
2022/10/24 06:15:06;;;;;;;5.13;1.60;;;12.20;90.10;;;;;;5091050;28;20052;-60
2022/10/24 06:17:33;;;;;;;;;;;12.30;90.10;;;;;;5084899;28;20044;-60
2022/10/24 06:20:00;;;;;;;3.72;1.35;;;12.30;90.10;;;;;;5089131;28;19935;-59
2022/10/24 06:22:28;;;;;;;6.85;1.33;;;12.30;90.10;;;;;;5091484;28;20401;-59
2022/10/24 06:24:55;;;;;;;5.18;1.70;;;12.30;90.10;;;;;;5093577;28;20581;-59
2022/10/24 06:27:22;;;;;;;6.47;2.38;;;12.40;90.10;;;;;;5091675;28;20048;-59
2022/10/24 06:29:49;;;;;;;4.85;1.70;;;12.30;90.10;;;;;;5090815;28;20115;-60
2022/10/24 06:32:18;;;;;;;3.55;2.00;;;12.30;90.20;;;;;;5087027;28;20039;-59
2022/10/24 06:34:45;;;;;;;3.92;1.60;;;12.30;90.10;;;;;;5091619;28;20049;-60
2022/10/24 06:37:12;;;;;;;6.25;2.30;;;12.30;90.10;;;;;;5088928;28;20040;-59
2022/10/24 06:39:39;;;;;;;5.55;1.60;;;12.30;90.10;;;;;;5080160;28;20767;-59
2022/10/24 06:42:06;;;;;;;8.70;2.95;;;12.30;90.10;;;;;;5086064;28;20055;-59
2022/10/24 06:44:33;;;;;;;4.60;2.00;;;12.30;90.10;;;;;;5087765;28;20635;-58
2022/10/24 06:47:00;;;;;;;5.13;1.90;;;12.30;90.10;;;;;;5077346;28;20048;-58
2022/10/24 06:49:28;;;;;;;5.82;2.05;;;12.30;90.10;;;;;;5076735;28;20044;-59
2022/10/24 06:51:55;;;;;;;9.27;2.10;;;12.40;90.10;;;;;;5082920;28;20059;-60
2022/10/24 06:54:22;;;;;;;7.20;2.17;;;12.40;90.10;;;;;;5085851;28;20044;-60
2022/10/24 06:56:51;;;;;;;5.05;2.00;;;12.40;90.10;;;;;;5076304;28;20044;-59
2022/10/24 06:59:18;;;;;;;8.05;2.22;;;12.40;90.10;;;;;;5080630;28;20043;-60
2022/10/24 07:01:45;;;;;;;6.45;2.55;;;12.40;90.20;;;;;;5085269;28;20047;-59
2022/10/24 07:04:13;;;;;;;6.20;2.53;;;12.40;90.20;;;;;;5083066;28;20052;-60
2022/10/24 07:06:41;;;;;;;8.60;2.67;;;12.40;90.30;;;;;;5078338;28;20032;-60
2022/10/24 07:09:08;;;;;;;8.20;2.45;;;12.50;90.20;;;;;;5084133;28;20048;-58
2022/10/24 07:11:35;;;;;;;5.95;2.47;;;12.50;90.10;;;;;;5084199;28;20138;-59
2022/10/24 07:14:02;;;;;;;5.18;2.13;;;12.60;90.20;;;;;;5086317;28;20056;-60
2022/10/24 07:16:29;;;;;;;2.97;1.52;;;12.60;90.10;;;;;;5087523;28;20107;-59
2022/10/24 07:18:56;;;;;;;6.38;2.10;;;12.60;90.20;;;;;;5090174;28;20498;-60
2022/10/24 07:21:25;;;;;;;7.07;1.88;;;12.60;90.20;;;;;;5090017;28;20052;-60
2022/10/24 07:23:54;;;;;;;4.72;1.98;;;12.60;90.20;;;;;;5080450;28;20047;-59
2022/10/24 07:26:23;;;;;;;4.55;1.90;;;12.60;90.30;;;;;;5083653;28;20046;-59
2022/10/24 07:28:53;;;;;;;4.47;2.05;;;12.60;90.20;;;;;;5079319;28;20449;-59
2022/10/24 07:31:26;;;;;;;7.95;2.38;;;12.60;90.30;;;;;;5086575;28;20371;-59
2022/10/24 07:33:53;;;;;;;4.65;2.13;;;12.60;90.40;;;;;;5084564;28;20048;-59
2022/10/24 07:36:23;;;;;;;4.47;1.95;;;12.70;90.40;;;;;;5087963;28;21443;-59
2022/10/24 07:38:52;;;;;;;4.50;1.90;;;12.70;90.40;;;;;;5085168;28;20051;-59
2022/10/24 07:41:20;;;;;;;5.10;2.08;;;12.70;90.40;;;;;;5083780;28;20516;-58
2022/10/24 07:43:47;;;;;;;5.13;2.00;;;12.80;90.30;;;;;;5087507;28;20044;-59
2022/10/24 07:46:16;;;;;;;4.57;1.88;;;12.80;90.00;;;;;;5083680;28;20060;-59
2022/10/24 07:48:43;;;;;;;5.45;1.80;;;12.80;90.40;;;;;;5087972;28;20160;-58
2022/10/24 07:51:12;;;;;;;4.50;1.70;;;12.80;90.30;;;;;;5078583;28;20040;-60
2022/10/24 07:53:40;;;;;;;6.95;1.88;;;12.90;90.20;;;;;;5088953;28;20067;-59
2022/10/24 07:56:09;;;;;;;5.70;1.80;;;12.90;90.50;;;;;;5084972;28;20044;-59
2022/10/24 07:58:38;;;;;;;4.72;1.33;;;12.90;90.40;;;;;;5089041;28;20388;-58
2022/10/24 08:01:06;;;;;;;4.45;1.40;;;13.00;90.30;;;;;;5088719;28;20402;-59
2022/10/24 08:03:33;;;;;;;4.38;1.75;;;13.00;90.50;;;;;;5086756;28;20043;-60
2022/10/24 08:06:00;;;;;;;6.07;2.03;;;13.10;90.50;;;;;;5088654;28;20051;-59
2022/10/24 08:08:29;;;;;;;3.45;1.90;;;13.10;90.40;;;;;;5089309;28;20044;-60
2022/10/24 08:10:56;;;;;;;5.72;1.98;;;13.10;90.40;;;;;;5084928;28;20041;-59
2022/10/24 08:13:23;;;;;;;3.97;1.90;;;13.10;90.00;;;;;;5086366;28;20139;-61
2022/10/24 08:15:51;;;;;;;3.70;1.90;;;13.20;90.40;;;;;;5085544;28;20040;-60
2022/10/24 08:18:18;;;;;;;7.40;2.10;;;13.20;90.50;;;;;;5079947;28;20055;-59
2022/10/24 08:20:45;;;;;;;4.82;2.17;;;13.20;90.40;;;;;;5083502;28;20679;-59
2022/10/24 08:23:12;;;;;;;4.93;1.90;;;13.20;90.20;;;;;;5080295;28;20040;-60
2022/10/24 08:25:40;;;;;;;6.13;2.45;;;13.20;90.50;;;;;;5083152;28;20052;-59
2022/10/24 08:28:07;;;;;;;4.53;2.42;;;13.20;90.40;;;;;;5085752;28;20101;-59
2022/10/24 08:30:34;;;;;;;6.63;2.72;;;13.30;90.60;;;;;;5091093;28;20048;-59
2022/10/24 08:33:02;;;;;;;6.03;2.63;;;13.30;90.70;;;;;;5079313;28;20055;-60
2022/10/24 08:35:29;;;;;;;7.53;2.80;;;13.30;90.70;;;;;;5081112;28;20044;-59
2022/10/24 08:37:56;;;;;;;6.00;2.80;;;13.40;90.80;;;;;;5082115;28;20052;-59
2022/10/24 08:40:23;;;;;;;7.50;2.35;;;13.40;90.60;;;;;;5089170;28;20040;-60
2022/10/24 08:42:51;;;;;;;6.20;2.60;;;13.50;90.80;;;;;;5087853;28;20056;-59
2022/10/24 08:45:26;;;;;;;8.13;2.50;;;13.50;90.70;;;;;;5089198;28;20036;-59
2022/10/24 08:48:02;;;;;;;7.65;2.13;;;13.50;90.70;;;;;;5087334;28;20052;-60
2022/10/24 08:50:33;;;;;;;7.75;2.47;;;13.60;90.70;;;;;;5082919;28;20048;-59
2022/10/24 08:53:03;;;;;;;5.95;2.30;;;13.60;90.70;;;;;;5077444;28;20568;-59
2022/10/24 08:55:37;;;;;;;4.72;2.50;;;13.70;90.90;;;;;;5081096;28;20036;-60
2022/10/24 08:58:06;;;;;;;6.60;2.53;;;13.70;90.80;;;;;;5083177;28;20044;-60
2022/10/24 09:00:38;;;;;;;6.78;2.70;;;13.80;90.90;;;;;;5081973;28;20044;-59
2022/10/24 09:03:14;;;;;;;7.45;2.90;;;13.80;90.90;;;;;;5084778;28;20512;-59
2022/10/24 09:05:46;;;;;;;6.55;2.75;;;13.90;90.90;;;;;;5078814;28;20517;-58
2022/10/24 09:08:22;;;;;;;5.88;2.50;;;13.90;90.80;;;;;;5087762;28;20080;-59
2022/10/24 09:10:54;;;;;;;4.85;2.30;;;14.00;90.90;;;;;;5085918;28;20147;-59
2022/10/24 09:13:22;;;;;;;6.07;2.33;;;14.10;90.80;;;;;;5082337;28;20067;-58
2022/10/24 09:15:50;;;;;;;4.55;2.17;;;14.10;90.80;;;;;;5086970;28;20037;-58
2022/10/24 09:18:21;;;;;;;6.80;2.63;;;14.10;90.90;;;;;;5079394;28;20139;-60
2022/10/24 09:20:50;;;;;;;6.47;2.63;;;14.20;91.20;;;;;;5083355;28;20043;-59
2022/10/24 09:23:19;;;;;;;6.93;2.67;;;14.20;91.10;;;;;;5086970;28;20525;-60
2022/10/24 09:25:49;;;;;;;6.93;2.90;;;14.20;91.20;;;;;;5088336;28;20533;-59
2022/10/24 09:28:17;;;;;;;6.07;2.80;;;14.30;91.40;;;;;;5089756;28;20055;-59
2022/10/24 09:30:44;;;;;;;6.18;2.90;;;14.30;91.30;;;;;;5089242;28;20040;-62
2022/10/24 09:33:24;;;;;;;10.60;4.10;;;14.30;91.40;;;;;;5084204;28;20077;-60
2022/10/24 09:35:55;;;;;;;6.45;3.78;;;14.40;91.70;;;;;;5083420;28;20045;-60
2022/10/24 09:38:30;;;;;;;8.88;4.18;;;14.50;91.50;;;;;;5085905;28;20044;-59
2022/10/24 09:41:01;;;;;;;7.70;4.05;;;14.60;91.70;;;;;;5090910;28;20056;-59
2022/10/24 09:43:38;;;;;;;9.65;3.92;;;14.70;91.30;;;;;;5090883;28;20044;-59
2022/10/24 09:46:08;;;;;;;10.38;3.70;;;14.90;91.40;;;;;;5088938;28;20040;-58
2022/10/24 09:48:46;;;;;;;11.43;3.45;;;15.00;91.00;;;;;;5088075;28;20044;-59
2022/10/24 09:51:26;;;;;;;7.13;3.20;;;15.10;90.80;;;;;;5083815;28;20155;-58
2022/10/24 09:54:25;;;;;;;8.88;3.00;;;15.30;90.90;;;;;;5089382;28;20095;-62
2022/10/24 09:56:55;;;;;;;9.05;2.97;;;15.40;90.60;;;;;;5085012;28;20059;-59
2022/10/24 09:59:31;;;;;;;9.68;2.78;;;15.50;91.20;;;;;;5084728;28;20036;-59
2022/10/24 10:02:23;;;;;;;6.57;2.85;;;15.60;91.00;;;;;;5089332;28;20040;-60
2022/10/24 10:05:18;;;;;;;9.70;2.97;;;15.70;90.90;;;;;;5086244;28;20060;-60
2022/10/24 10:07:49;;;;;;;6.50;2.80;;;15.70;90.80;;;;;;5088030;28;20079;-60
2022/10/24 10:10:35;;;;;;;5.80;2.35;;;15.80;90.80;;;;;;5084252;28;20131;-58
2022/10/24 10:13:06;;;;;;;8.73;2.22;;;15.90;90.90;;;;;;5083203;28;20127;-60
2022/10/24 10:15:37;;;;;;;8.45;2.88;;;16.00;90.70;;;;;;5078816;28;20131;-59
2022/10/24 10:18:20;;;;;;;7.20;2.08;;;16.20;90.40;;;;;;5078174;28;20059;-59
2022/10/24 10:20:59;;;;;;;5.95;2.30;;;16.30;90.30;;;;;;5087755;28;20040;-59
2022/10/24 10:23:31;;;;;;;5.80;2.33;;;16.40;89.70;;;;;;5084736;28;20072;-60
2022/10/24 10:26:04;;;;;;;4.80;2.00;;;16.40;89.40;;;;;;5086291;28;20048;-59
2022/10/24 10:28:36;;;;;;;9.35;2.35;;;16.50;89.70;;;;;;5090343;28;20046;-58
2022/10/24 10:31:03;;;;;;;6.78;1.90;;;16.50;89.30;;;;;;5088092;28;20047;-60
2022/10/24 10:33:36;;;;;;;6.60;2.03;;;16.60;88.90;;;;;;5086772;28;20048;-60
2022/10/24 10:36:11;;;;;;;7.32;1.70;;;16.60;88.50;;;;;;5087249;28;20055;-58
2022/10/24 10:38:48;;;;;;;10.63;2.25;;;16.80;88.50;;;;;;5086592;28;20040;-60
2022/10/24 10:41:22;;;;;;;8.68;2.00;;;16.90;88.20;;;;;;5089788;28;20471;-59
2022/10/24 10:43:59;;;;;;;4.45;1.75;;;17.00;87.60;;;;;;5090306;28;20428;-59
2022/10/24 10:46:32;;;;;;;6.72;1.95;;;17.10;87.80;;;;;;5087343;28;20440;-59
2022/10/24 10:49:09;;;;;;;5.63;1.67;;;17.10;87.40;;;;;;5081255;28;20093;-58
2022/10/24 10:51:43;;;;;;;4.85;1.27;;;17.10;87.10;;;;;;5084722;28;20040;-60
2022/10/24 10:54:24;;;;;;;4.90;1.80;;;17.20;87.00;;;;;;5085585;28;20067;-60
2022/10/24 10:56:54;;;;;;;7.95;1.80;;;17.20;86.50;;;;;;5084409;28;20056;-59
2022/10/24 10:59:39;;;;;;;6.75;1.40;;;17.30;85.70;;;;;;5087538;28;20380;-60
2022/10/24 11:02:20;;;;;;;7.38;2.15;;;17.40;85.50;;;;;;5081691;28;20070;-59
2022/10/24 11:04:58;;;;;;;5.50;1.73;;;17.40;85.30;;;;;;5087691;28;20055;-59
2022/10/24 11:07:34;;;;;;;5.90;1.80;;;17.50;84.50;;;;;;5090147;28;20138;-59
2022/10/24 11:10:07;;;;;;;4.95;1.50;;;17.50;84.40;;;;;;5088793;28;20512;-59
2022/10/24 11:12:38;;;;;;;8.50;1.90;;;17.50;84.10;;;;;;5085535;28;20055;-60
2022/10/24 11:15:10;;;;;;;8.13;1.70;;;17.60;83.70;;;;;;5085092;28;20476;-59
2022/10/24 11:17:43;;;;;;;5.63;1.42;;;17.60;83.60;;;;;;5091456;28;20078;-58
2022/10/24 11:20:18;;;;;;;4.75;1.75;;;17.70;82.60;;;;;;5087095;28;20477;-58
2022/10/24 11:22:50;;;;;;;5.68;1.45;;;17.80;82.10;;;;;;5089095;28;20116;-60
2022/10/24 11:25:24;;;;;;;3.75;1.30;;;17.80;81.70;;;;;;5086517;28;20044;-59
2022/10/24 11:27:59;;;;;;;6.97;1.70;;;17.90;82.20;;;;;;5079712;28;20044;-60
2022/10/24 11:30:38;;;;;;;6.85;1.20;;;17.90;81.70;;;;;;5081198;28;20048;-59
2022/10/24 11:33:09;;;;;;;4.60;1.20;;;17.90;82.20;;;;;;5078365;28;20044;-58
2022/10/24 11:35:43;;;;;;;4.93;1.33;;;18.00;81.50;;;;;;5077023;28;20135;-59
2022/10/24 11:38:16;;;;;;;8.20;1.50;;;18.10;81.10;;;;;;5084658;28;20118;-59
2022/10/24 11:40:47;;;;;;;4.32;1.20;;;18.20;81.50;;;;;;5077683;28;20501;-60
2022/10/24 11:43:22;;;;;;;7.47;1.70;;;18.10;81.30;;;;;;5085839;28;20054;-60
2022/10/24 11:45:56;;;;;;;5.97;1.50;;;18.20;81.20;;;;;;5077855;28;20087;-59
2022/10/24 11:48:30;;;;;;;5.75;1.30;;;18.20;80.40;;;;;;5079385;28;20510;-59
2022/10/24 11:51:03;;;;;;;5.68;1.40;;;18.20;80.40;;;;;;5082839;28;20615;-59
2022/10/24 11:53:51;;;;;;;3.60;1.38;;;18.10;80.60;;;;;;5091311;28;20059;-59
2022/10/24 11:56:29;;;;;;;5.15;1.75;;;18.10;80.80;;;;;;5088372;28;20051;-59
2022/10/24 11:58:59;;;;;;;4.10;1.30;;;18.10;80.30;;;;;;5085340;28;20044;-59
2022/10/24 12:01:35;;;;;;;;;;;18.10;80.20;;;;;;5084695;28;20046;-58
2022/10/24 12:04:27;;;;;;;2.95;1.15;;;18.10;80.60;;;;;;5090533;28;20267;-59
2022/10/24 12:07:20;;;;;;;5.20;1.33;;;18.10;80.20;;;;;;5063573;28;20056;-59
2022/10/24 12:10:06;;;;;;;4.68;1.33;;;18.20;80.20;;;;;;5063556;28;20078;-60
2022/10/24 12:12:50;;;;;;;4.75;1.27;;;18.10;80.20;;;;;;5066798;28;20048;-60
2022/10/24 12:15:31;;;;;;;6.53;1.65;;;18.10;79.70;;;;;;5064056;28;20505;-59
2022/10/24 12:18:07;;;;;;;4.03;1.30;;;18.10;80.00;;;;;;5058969;28;20380;-59
2022/10/24 12:20:35;;;;;;;4.75;1.50;;;18.10;79.90;;;;;;5068361;28;20040;-60
2022/10/24 12:23:03;;;;;;;4.63;1.60;;;18.10;79.90;;;;;;5062271;28;20045;-60
2022/10/24 12:25:34;;;;;;;4.85;1.40;;;18.10;79.30;;;;;;5064855;28;20104;-59
2022/10/24 12:28:06;;;;;;;5.38;1.80;;;18.10;79.30;;;;;;5069788;28;20508;-60
2022/10/24 12:30:36;;;;;;;3.97;1.52;;;18.10;79.40;;;;;;5066569;28;20548;-60
2022/10/24 12:33:12;;;;;;;5.85;1.48;;;18.10;79.50;;;;;;5069205;28;20048;-60
2022/10/24 12:35:50;;;;;;;7.85;1.45;;;18.10;79.40;;;;;;5064594;28;20046;-60
2022/10/24 12:39:05;;;;;;;8.23;1.50;;;18.10;79.60;;;;;;5065647;28;20049;-60
2022/10/24 12:41:38;;;;;;;4.00;1.55;;;18.10;80.20;;;;;;5049807;28;20045;-60
2022/10/24 12:44:39;;;;;;;4.70;1.67;;;18.10;79.80;;;;;;5058563;28;20048;-62
2022/10/24 12:47:30;;;;;;;6.55;1.30;;;18.10;79.50;;;;;;5068656;28;20094;-59
2022/10/24 12:49:59;;;;;;;7.82;1.77;;;18.10;79.90;;;;;;5064926;28;20041;-61
2022/10/24 12:53:02;;;;;;;7.68;1.40;;;18.10;79.40;;;;;;5060682;28;20048;-59
2022/10/24 12:55:51;;;;;;;4.90;1.58;;;18.10;79.30;;;;;;5067699;28;20141;-59
2022/10/24 12:58:25;;;;;;;5.93;1.90;;;18.10;78.80;;;;;;5060231;28;20474;-60
2022/10/24 13:00:56;;;;;;;3.58;1.52;;;18.10;78.60;;;;;;5064165;28;20514;-60
2022/10/24 13:03:43;;;;;;;4.93;1.10;;;18.10;79.20;;;;;;5065391;28;20040;-60
2022/10/24 13:06:17;;;;;;;4.90;1.58;;;18.10;79.00;;;;;;5071828;28;20086;-60
2022/10/24 13:08:58;;;;;;;3.20;1.33;;;18.10;78.70;;;;;;5060128;28;20054;-59